Time;durP1;ratioP1;P1;durP2;ratioP2;P2;SDS_P1;SDS_P2;PMS_P1;PMS_P2;Temp;Humidity;BMP_temperature;BMP_pressure;BME280_temperature;BME280_humidity;BME280_pressure;Samples;Min_cycle;Max_cycle;Signal;HPM_P1;HPM_P2
2023/06/05 00:01:19;;;;;;;1.05;0.88;;;18.40;58.30;;;;;;4972215;28;20042;-63
2023/06/05 00:03:45;;;;;;;1.85;0.82;;;18.40;58.20;;;;;;4965165;28;20035;-64
2023/06/05 00:06:11;;;;;;;2.13;0.90;;;18.40;58.00;;;;;;4975945;28;20050;-63
2023/06/05 00:08:36;;;;;;;1.73;0.80;;;18.40;58.10;;;;;;4968095;28;20093;-64
2023/06/05 00:11:02;;;;;;;1.85;0.93;;;18.30;59.00;;;;;;4975412;28;20064;-64
2023/06/05 00:13:28;;;;;;;2.05;0.80;;;18.20;59.60;;;;;;4968316;28;20094;-63
2023/06/05 00:15:53;;;;;;;1.63;0.90;;;18.10;60.20;;;;;;4974011;28;20489;-63
2023/06/05 00:18:19;;;;;;;1.00;0.70;;;18.00;60.60;;;;;;4969963;28;20489;-63
2023/06/05 00:20:45;;;;;;;1.73;0.73;;;18.10;61.10;;;;;;4972716;28;20049;-64
2023/06/05 00:23:11;;;;;;;1.08;0.50;;;18.10;61.30;;;;;;4952836;28;20031;-63
2023/06/05 00:25:37;;;;;;;1.15;0.70;;;18.00;61.70;;;;;;4970536;28;20030;-63
2023/06/05 00:28:03;;;;;;;1.05;0.70;;;17.80;62.00;;;;;;4971991;28;20035;-62
2023/06/05 00:30:29;;;;;;;1.75;0.90;;;17.70;62.60;;;;;;4970423;28;20042;-62
2023/06/05 00:32:56;;;;;;;0.98;0.50;;;17.60;63.00;;;;;;4972943;28;20113;-62
2023/06/05 00:35:22;;;;;;;1.80;1.00;;;17.50;63.20;;;;;;4967776;28;20027;-63
2023/06/05 00:37:48;;;;;;;2.25;0.55;;;17.30;63.90;;;;;;4973409;28;20082;-63
2023/06/05 00:40:14;;;;;;;1.30;0.63;;;17.10;64.50;;;;;;4968329;28;20470;-63
2023/06/05 00:42:40;;;;;;;2.28;0.90;;;17.00;64.90;;;;;;4937478;29;20134;-63
2023/06/05 00:45:06;;;;;;;1.75;0.90;;;16.80;65.20;;;;;;4963583;28;20118;-62
2023/06/05 00:47:33;;;;;;;1.38;0.65;;;16.90;65.80;;;;;;4963269;28;20039;-63
2023/06/05 00:50:00;;;;;;;1.15;0.70;;;16.90;66.00;;;;;;4949721;28;20061;-63
2023/06/05 00:52:27;;;;;;;4.43;0.98;;;16.90;66.40;;;;;;4956895;28;20098;-63
2023/06/05 00:54:53;;;;;;;2.25;0.90;;;16.80;66.80;;;;;;4949290;28;20035;-63
2023/06/05 00:57:20;;;;;;;1.23;0.50;;;16.80;67.00;;;;;;4956489;28;20034;-63
2023/06/05 00:59:46;;;;;;;1.45;0.32;;;16.80;67.20;;;;;;4949574;28;20656;-63
2023/06/05 01:02:14;;;;;;;1.08;0.60;;;16.80;67.40;;;;;;4973920;28;20106;-63
2023/06/05 01:04:43;;;;;;;1.38;0.80;;;16.80;67.30;;;;;;4968831;28;20602;-63
2023/06/05 01:07:13;;;;;;;0.93;0.70;;;16.80;67.50;;;;;;4962626;28;20122;-63
2023/06/05 01:09:40;;;;;;;2.10;0.93;;;16.70;67.70;;;;;;4974209;28;20457;-64
2023/06/05 01:12:33;;;;;;;6.05;1.23;;;16.70;67.80;;;;;;4973976;28;20109;-63
2023/06/05 01:15:02;;;;;;;3.33;1.35;;;16.60;68.40;;;;;;4968619;28;20030;-63
2023/06/05 01:17:30;;;;;;;4.15;0.85;;;16.60;68.50;;;;;;4962246;28;20031;-63
2023/06/05 01:19:58;;;;;;;2.70;0.82;;;16.50;68.80;;;;;;4949303;28;20046;-64
2023/06/05 01:22:26;;;;;;;0.85;0.57;;;16.40;68.80;;;;;;4956346;28;20038;-64
2023/06/05 01:24:52;;;;;;;4.07;0.82;;;16.40;69.00;;;;;;4944514;29;20039;-64
2023/06/05 01:27:25;;;;;;;1.13;0.60;;;16.40;69.40;;;;;;4961041;28;20393;-63
2023/06/05 01:30:30;;;;;;;3.30;0.85;;;16.10;70.20;;;;;;4950218;28;20046;-64
2023/06/05 01:33:02;;;;;;;2.60;0.60;;;16.00;71.00;;;;;;4968909;28;20097;-64
2023/06/05 01:35:33;;;;;;;2.08;0.80;;;16.00;71.10;;;;;;4969202;28;20035;-64
2023/06/05 01:38:02;;;;;;;4.07;0.98;;;16.00;71.40;;;;;;4967268;28;20058;-64
2023/06/05 01:40:31;;;;;;;2.88;0.82;;;16.00;71.50;;;;;;4962724;28;20398;-64
2023/06/05 01:42:59;;;;;;;2.28;0.80;;;16.00;71.50;;;;;;4954263;28;20028;-64
2023/06/05 01:45:26;;;;;;;2.08;0.50;;;15.70;71.90;;;;;;4960009;28;20499;-64
2023/06/05 01:47:53;;;;;;;2.15;1.15;;;15.60;72.20;;;;;;4961961;28;20121;-64
2023/06/05 01:50:19;;;;;;;3.38;0.70;;;15.70;72.50;;;;;;4950798;28;20189;-64
2023/06/05 01:52:46;;;;;;;2.65;0.57;;;15.60;72.20;;;;;;4972801;28;20034;-64
2023/06/05 01:55:20;;;;;;;1.63;0.93;;;15.60;72.60;;;;;;4966513;28;20485;-64
2023/06/05 01:57:46;;;;;;;1.50;0.55;;;15.50;72.90;;;;;;4973439;28;20031;-64
2023/06/05 02:00:15;;;;;;;1.17;0.63;;;15.40;73.10;;;;;;4962254;28;20046;-64
2023/06/05 02:02:47;;;;;;;1.23;0.55;;;15.40;73.00;;;;;;4963604;28;20034;-64
2023/06/05 02:05:14;;;;;;;2.10;0.85;;;15.40;73.10;;;;;;4954139;28;20046;-64
2023/06/05 02:07:54;;;;;;;1.27;0.93;;;15.40;73.20;;;;;;4962939;28;20027;-64
2023/06/05 02:10:21;;;;;;;1.50;0.75;;;15.30;73.10;;;;;;4956356;28;20034;-64
2023/06/05 02:12:47;;;;;;;1.42;0.85;;;15.30;73.40;;;;;;4954737;28;20034;-64
2023/06/05 02:15:14;;;;;;;1.05;0.57;;;15.20;73.70;;;;;;4958717;28;20039;-64
2023/06/05 02:17:49;;;;;;;1.42;0.73;;;15.20;73.60;;;;;;4942775;29;20027;-64
2023/06/05 02:20:16;;;;;;;1.83;0.65;;;15.20;73.60;;;;;;4953090;28;20039;-64
2023/06/05 02:22:44;;;;;;;1.00;0.55;;;15.10;73.70;;;;;;4963218;28;20027;-64
2023/06/05 02:25:13;;;;;;;3.53;0.90;;;15.10;73.70;;;;;;4944630;28;20035;-64
2023/06/05 02:27:39;;;;;;;3.63;0.73;;;15.00;73.80;;;;;;4944169;28;20042;-63
2023/06/05 02:30:06;;;;;;;1.02;0.75;;;15.00;73.60;;;;;;4965188;28;20039;-63
2023/06/05 02:32:32;;;;;;;1.67;0.70;;;14.90;73.80;;;;;;4972449;28;20034;-63
2023/06/05 02:34:58;;;;;;;0.85;0.68;;;15.00;73.80;;;;;;4961768;23;20050;-64
2023/06/05 02:37:28;;;;;;;1.25;0.60;;;14.90;73.90;;;;;;4986037;28;20042;-64
2023/06/05 02:39:54;;;;;;;2.17;0.93;;;14.90;73.40;;;;;;5000317;28;20045;-65
2023/06/05 02:42:20;;;;;;;1.30;0.63;;;14.90;73.30;;;;;;4994305;28;20106;-64
2023/06/05 02:44:46;;;;;;;1.45;0.73;;;14.90;73.20;;;;;;5007346;28;20029;-64
2023/06/05 02:47:13;;;;;;;2.72;0.90;;;14.90;73.30;;;;;;5000393;28;20041;-64
2023/06/05 02:49:38;;;;;;;2.30;0.77;;;14.90;73.00;;;;;;4990541;28;20038;-64
2023/06/05 02:52:05;;;;;;;1.38;0.77;;;14.90;73.10;;;;;;4999371;28;20042;-64
2023/06/05 02:54:31;;;;;;;1.85;0.80;;;14.90;73.30;;;;;;5006545;28;20030;-64
2023/06/05 02:57:00;;;;;;;1.70;0.75;;;14.80;73.40;;;;;;4982737;28;20108;-64
2023/06/05 02:59:27;;;;;;;4.40;0.68;;;14.90;73.50;;;;;;5006187;28;20044;-64
2023/06/05 03:01:54;;;;;;;2.00;1.00;;;14.80;74.10;;;;;;4993547;28;20025;-64
2023/06/05 03:04:21;;;;;;;3.28;1.05;;;14.80;73.70;;;;;;5004822;28;20037;-64
2023/06/05 03:06:50;;;;;;;2.70;1.27;;;14.80;73.70;;;;;;5001026;28;20029;-64
2023/06/05 03:09:17;;;;;;;1.90;0.80;;;14.70;73.60;;;;;;5004659;28;20029;-64
2023/06/05 03:11:43;;;;;;;2.80;1.15;;;14.70;73.80;;;;;;5002266;28;20022;-65
2023/06/05 03:14:09;;;;;;;2.67;0.85;;;14.60;74.00;;;;;;5001983;28;20029;-65
2023/06/05 03:16:41;;;;;;;4.10;0.80;;;14.60;74.20;;;;;;4998888;28;20030;-64
2023/06/05 03:19:08;;;;;;;1.85;0.60;;;14.60;74.40;;;;;;4995397;28;20088;-64
2023/06/05 03:21:40;;;;;;;1.80;0.80;;;14.50;74.60;;;;;;5002064;28;20018;-64
2023/06/05 03:24:15;;;;;;;0.80;0.60;;;14.50;74.70;;;;;;4994903;28;20103;-65
2023/06/05 03:26:43;;;;;;;1.45;0.77;;;14.40;74.90;;;;;;4985269;28;20080;-65
2023/06/05 03:29:10;;;;;;;1.23;0.50;;;14.40;74.90;;;;;;4978500;28;20044;-65
2023/06/05 03:31:36;;;;;;;1.45;0.63;;;14.40;74.80;;;;;;5001829;28;20025;-65
2023/06/05 03:34:03;;;;;;;4.53;0.88;;;14.50;74.60;;;;;;4985153;28;20022;-64
2023/06/05 03:36:37;;;;;;;1.45;0.65;;;14.40;74.70;;;;;;5001383;28;20060;-64
2023/06/05 03:39:03;;;;;;;2.22;0.90;;;14.40;74.60;;;;;;5002627;28;20022;-63
2023/06/05 03:41:29;;;;;;;1.33;0.75;;;14.40;74.80;;;;;;4977260;28;20136;-64
2023/06/05 03:43:56;;;;;;;1.67;0.73;;;14.40;74.50;;;;;;4987475;28;20469;-64
2023/06/05 03:46:23;;;;;;;1.98;0.57;;;14.40;74.40;;;;;;4994725;28;20045;-64
2023/06/05 03:48:53;;;;;;;2.45;0.95;;;14.40;74.30;;;;;;4988951;28;20074;-65
2023/06/05 03:51:19;;;;;;;1.50;0.75;;;14.40;74.50;;;;;;4986638;28;20030;-64
2023/06/05 03:53:45;;;;;;;2.97;0.43;;;14.30;75.30;;;;;;4987180;28;20026;-64
2023/06/05 03:56:15;;;;;;;3.28;1.00;;;14.30;74.40;;;;;;4986136;28;20030;-65
2023/06/05 03:58:41;;;;;;;1.75;0.80;;;14.30;74.60;;;;;;4986709;28;20019;-64
2023/06/05 04:01:07;;;;;;;1.85;0.90;;;14.30;74.80;;;;;;4987892;28;20053;-64
2023/06/05 04:03:36;;;;;;;2.90;1.13;;;14.40;74.50;;;;;;4989657;28;20105;-63
2023/06/05 04:06:04;;;;;;;2.25;1.02;;;14.50;74.60;;;;;;4994128;28;20056;-63
2023/06/05 04:08:30;;;;;;;3.13;0.80;;;14.40;74.60;;;;;;4987818;28;20030;-64
2023/06/05 04:10:56;;;;;;;2.15;1.23;;;14.40;74.80;;;;;;4990342;28;20397;-63
2023/06/05 04:13:22;;;;;;;3.70;0.82;;;14.40;75.00;;;;;;5000082;28;20064;-56
2023/06/05 04:15:48;;;;;;;2.05;0.77;;;14.40;75.80;;;;;;4997775;28;20401;-58
2023/06/05 04:18:15;;;;;;;2.53;1.02;;;14.50;75.30;;;;;;4995353;28;20539;-54
2023/06/05 04:20:40;;;;;;;1.48;0.63;;;14.50;75.00;;;;;;4975466;28;20026;-57
2023/06/05 04:23:06;;;;;;;2.17;0.80;;;14.40;74.60;;;;;;4984673;28;20022;-56
2023/06/05 04:25:32;;;;;;;3.20;0.90;;;14.50;75.80;;;;;;4984768;28;20049;-56
2023/06/05 04:27:58;;;;;;;1.48;0.70;;;14.20;76.40;;;;;;5001166;28;20034;-57
2023/06/05 04:30:24;;;;;;;1.08;0.90;;;14.30;76.00;;;;;;5003410;28;20552;-58
2023/06/05 04:32:56;;;;;;;1.33;0.60;;;14.30;76.30;;;;;;4980456;28;20058;-57
2023/06/05 04:35:22;;;;;;;1.67;0.70;;;14.40;76.80;;;;;;4998412;28;20113;-58
2023/06/05 04:37:48;;;;;;;1.30;0.80;;;14.40;76.30;;;;;;4997266;28;20106;-56
2023/06/05 04:40:19;;;;;;;1.92;0.93;;;14.50;75.70;;;;;;4975940;28;20034;-58
2023/06/05 04:42:45;;;;;;;1.40;0.47;;;14.60;75.50;;;;;;4982367;28;20018;-57
2023/06/05 04:45:11;;;;;;;4.32;2.00;;;14.70;75.60;;;;;;5004593;28;20038;-58
2023/06/05 04:47:37;;;;;;;6.10;1.80;;;14.80;75.80;;;;;;4993621;28;20037;-55
2023/06/05 04:50:05;;;;;;;0.95;0.77;;;14.80;78.50;;;;;;4978634;28;20038;-55
2023/06/05 04:52:35;;;;;;;1.58;0.73;;;14.80;77.00;;;;;;4997510;28;20022;-55
2023/06/05 04:55:02;;;;;;;3.63;0.70;;;14.90;75.40;;;;;;5008663;28;20045;-57
2023/06/05 04:57:29;;;;;;;3.63;0.90;;;14.90;75.20;;;;;;5002304;28;20030;-51
2023/06/05 04:59:56;;;;;;;3.75;0.98;;;15.00;75.90;;;;;;5008161;28;20030;-58
2023/06/05 05:02:23;;;;;;;2.40;0.80;;;15.10;75.60;;;;;;4996184;28;20030;-59
2023/06/05 05:04:49;;;;;;;2.20;0.95;;;14.90;75.60;;;;;;4990875;28;20452;-57
2023/06/05 05:07:16;;;;;;;3.63;0.85;;;14.90;75.90;;;;;;4995269;28;20022;-56
2023/06/05 05:09:43;;;;;;;1.30;0.80;;;15.00;76.10;;;;;;4986220;28;20061;-54
2023/06/05 05:12:10;;;;;;;2.28;1.02;;;15.10;75.60;;;;;;4995723;28;20030;-56
2023/06/05 05:14:36;;;;;;;5.63;0.80;;;15.30;74.90;;;;;;4972243;28;20045;-54
2023/06/05 05:17:03;;;;;;;3.45;0.85;;;15.50;74.70;;;;;;5006214;28;20103;-54
2023/06/05 05:19:30;;;;;;;3.30;1.38;;;15.60;74.50;;;;;;5005034;28;20531;-58
2023/06/05 05:21:56;;;;;;;1.05;0.70;;;15.70;74.50;;;;;;5007312;28;20030;-56
2023/06/05 05:24:23;;;;;;;1.38;0.85;;;15.80;74.10;;;;;;5003864;28;20034;-58
2023/06/05 05:26:50;;;;;;;3.03;0.80;;;15.90;73.80;;;;;;5002077;28;20160;-58
2023/06/05 05:29:16;;;;;;;1.73;0.95;;;16.00;72.90;;;;;;4987540;28;20018;-56
2023/06/05 05:31:43;;;;;;;1.58;0.77;;;16.10;73.00;;;;;;5010189;28;20036;-57
2023/06/05 05:34:09;;;;;;;1.77;0.95;;;16.20;72.80;;;;;;5005821;28;20110;-55
2023/06/05 05:36:36;;;;;;;1.70;0.82;;;16.20;72.90;;;;;;4990872;28;20034;-51
2023/06/05 05:39:04;;;;;;;1.63;0.98;;;16.40;72.70;;;;;;4997702;28;20290;-54
2023/06/05 05:41:30;;;;;;;1.75;0.85;;;16.50;72.10;;;;;;5005841;28;20513;-56
2023/06/05 05:43:56;;;;;;;2.25;0.73;;;16.60;72.10;;;;;;4998741;28;20034;-54
2023/06/05 05:46:21;;;;;;;1.52;1.10;;;16.80;72.00;;;;;;4986923;28;20032;-54
2023/06/05 05:48:47;;;;;;;1.50;0.65;;;16.80;71.40;;;;;;4999497;28;20049;-57
2023/06/05 05:51:13;;;;;;;1.27;0.68;;;17.00;71.50;;;;;;5012488;28;20044;-57
2023/06/05 05:53:38;;;;;;;0.70;0.50;;;16.90;71.90;;;;;;4999791;28;20026;-56
2023/06/05 05:56:04;;;;;;;0.77;0.45;;;17.00;72.00;;;;;;5012138;28;20500;-56
2023/06/05 05:58:31;;;;;;;1.67;0.57;;;17.10;71.70;;;;;;5000909;28;20552;-56
2023/06/05 06:00:59;;;;;;;3.22;0.65;;;17.20;71.50;;;;;;5003998;28;20026;-54
2023/06/05 06:03:26;;;;;;;3.83;1.20;;;17.40;71.90;;;;;;4985630;28;20030;-56
2023/06/05 06:05:52;;;;;;;1.90;0.95;;;17.50;70.90;;;;;;4994728;28;20041;-55
2023/06/05 06:08:18;;;;;;;2.50;0.43;;;17.60;71.20;;;;;;4998824;28;20034;-56
2023/06/05 06:10:45;;;;;;;7.68;0.80;;;17.70;70.20;;;;;;4991563;28;20099;-56
2023/06/05 06:13:12;;;;;;;2.70;0.90;;;17.80;70.20;;;;;;4976934;28;20118;-58
2023/06/05 06:15:38;;;;;;;0.73;0.50;;;17.80;70.30;;;;;;5004552;28;20034;-73
2023/06/05 06:18:07;;;;;;;2.42;0.60;;;17.90;69.00;;;;;;4999990;28;20474;-60
2023/06/05 06:20:33;;;;;;;2.45;1.10;;;18.10;68.00;;;;;;4976995;28;20033;-59
2023/06/05 06:23:00;;;;;;;1.02;0.57;;;18.30;67.30;;;;;;4986679;28;20095;-59
2023/06/05 06:25:28;;;;;;;1.17;0.65;;;18.40;67.00;;;;;;5006441;28;20041;-60
2023/06/05 06:27:59;;;;;;;1.50;0.52;;;18.50;66.10;;;;;;5005351;28;20044;-58
2023/06/05 06:30:27;;;;;;;2.15;1.25;;;18.60;66.60;;;;;;5006714;28;20069;-59
2023/06/05 06:32:58;;;;;;;3.25;1.10;;;18.40;65.90;;;;;;5004740;28;20046;-58
2023/06/05 06:35:27;;;;;;;2.60;0.90;;;18.60;65.90;;;;;;4997652;28;20046;-59
2023/06/05 06:37:57;;;;;;;1.15;0.60;;;18.80;64.50;;;;;;4997860;28;20121;-58
2023/06/05 06:40:23;;;;;;;1.67;0.80;;;19.00;64.60;;;;;;5005841;28;20061;-59
2023/06/05 06:42:50;;;;;;;4.03;1.90;;;19.00;64.00;;;;;;5005263;28;20460;-58
2023/06/05 06:45:17;;;;;;;4.05;1.17;;;19.10;64.40;;;;;;5004648;28;20026;-59
2023/06/05 06:47:43;;;;;;;3.33;0.88;;;19.20;64.40;;;;;;5006324;28;20026;-58
2023/06/05 06:50:09;;;;;;;2.38;1.02;;;19.20;64.90;;;;;;5004152;28;20021;-58
2023/06/05 06:52:35;;;;;;;1.75;0.60;;;19.40;64.70;;;;;;4990872;28;20036;-58
2023/06/05 06:55:01;;;;;;;2.50;1.08;;;19.50;64.30;;;;;;4985367;28;20323;-57
2023/06/05 06:57:27;;;;;;;2.85;0.85;;;19.60;64.60;;;;;;5007744;28;20040;-57
2023/06/05 06:59:55;;;;;;;1.63;0.75;;;19.80;64.20;;;;;;5003441;28;20428;-59
2023/06/05 07:02:25;;;;;;;3.42;1.00;;;19.80;63.20;;;;;;5005557;28;20105;-54
2023/06/05 07:04:53;;;;;;;1.40;0.70;;;20.00;62.90;;;;;;4999525;28;20481;-58
2023/06/05 07:07:21;;;;;;;3.55;0.95;;;20.00;63.00;;;;;;4978840;28;20068;-64
2023/06/05 07:09:53;;;;;;;1.50;0.70;;;20.00;63.00;;;;;;5001277;28;20026;-64
2023/06/05 07:12:22;;;;;;;2.22;0.70;;;19.90;63.50;;;;;;4999094;28;20041;-64
2023/06/05 07:14:48;;;;;;;2.70;1.30;;;20.00;63.80;;;;;;5002525;28;20033;-66
2023/06/05 07:17:14;;;;;;;2.50;0.85;;;20.10;63.20;;;;;;5006215;28;20544;-64
2023/06/05 07:19:40;;;;;;;5.18;1.27;;;20.10;63.20;;;;;;4997086;28;20039;-65
2023/06/05 07:22:06;;;;;;;3.67;0.75;;;20.20;63.50;;;;;;5001660;28;20052;-64
2023/06/05 07:24:38;;;;;;;1.48;0.88;;;20.10;63.30;;;;;;5002888;28;20018;-65
2023/06/05 07:27:05;;;;;;;2.20;0.90;;;20.10;63.10;;;;;;4990653;28;20033;-65
2023/06/05 07:29:31;;;;;;;1.67;0.95;;;20.10;63.30;;;;;;4985644;28;20378;-64
2023/06/05 07:31:59;;;;;;;1.90;0.75;;;20.00;63.20;;;;;;4990358;28;20504;-64
2023/06/05 07:34:26;;;;;;;3.42;1.20;;;20.10;63.10;;;;;;4980878;28;20026;-63
2023/06/05 07:36:53;;;;;;;2.92;0.80;;;20.20;62.30;;;;;;4959366;28;20041;-65
2023/06/05 07:39:20;;;;;;;1.55;0.95;;;20.10;62.90;;;;;;5002830;28;20105;-64
2023/06/05 07:41:46;;;;;;;1.85;0.80;;;20.10;62.50;;;;;;4988396;28;20038;-64
2023/06/05 07:44:16;;;;;;;4.47;0.88;;;20.30;62.50;;;;;;5002433;28;20509;-64
2023/06/05 07:46:44;;;;;;;1.60;0.90;;;20.40;63.10;;;;;;5005677;28;20039;-65
2023/06/05 07:49:10;;;;;;;1.52;0.68;;;20.50;62.70;;;;;;4985123;28;20280;-64
2023/06/05 07:51:37;;;;;;;1.60;0.80;;;20.60;62.70;;;;;;5007382;28;20030;-64
2023/06/05 07:54:10;;;;;;;2.85;1.08;;;20.30;62.60;;;;;;4984028;28;20061;-64
2023/06/05 07:56:38;;;;;;;3.60;1.33;;;20.50;62.90;;;;;;4998496;28;20159;-64
2023/06/05 07:59:05;;;;;;;1.02;0.52;;;20.70;63.10;;;;;;5002104;28;20045;-65
2023/06/05 08:01:36;;;;;;;2.15;0.90;;;20.90;62.80;;;;;;5008581;28;20030;-64
2023/06/05 08:04:11;;;;;;;2.25;1.00;;;20.90;63.00;;;;;;4983438;28;20041;-64
2023/06/05 08:06:40;;;;;;;1.65;0.80;;;21.00;62.40;;;;;;4989550;28;20038;-65
2023/06/05 08:09:08;;;;;;;2.28;0.98;;;21.00;62.20;;;;;;4994291;28;20043;-64
2023/06/05 08:11:34;;;;;;;1.73;1.00;;;21.00;62.50;;;;;;4989596;28;20132;-65
2023/06/05 08:14:01;;;;;;;2.45;0.93;;;21.20;62.10;;;;;;5000141;28;20497;-65
2023/06/05 08:16:26;;;;;;;4.18;1.27;;;21.40;61.50;;;;;;5009280;28;20092;-63
2023/06/05 08:18:52;;;;;;;1.70;0.70;;;21.50;61.40;;;;;;4998861;28;20061;-64
2023/06/05 08:21:18;;;;;;;3.00;0.85;;;21.80;60.90;;;;;;4992216;28;20486;-64
2023/06/05 08:23:43;;;;;;;1.48;0.70;;;21.80;60.80;;;;;;4998619;28;20121;-64
2023/06/05 08:26:12;;;;;;;3.47;0.70;;;21.80;60.50;;;;;;5014503;28;20108;-64
2023/06/05 08:28:39;;;;;;;1.88;0.90;;;21.90;61.10;;;;;;5001669;28;20026;-65
2023/06/05 08:31:06;;;;;;;2.00;1.00;;;22.00;61.10;;;;;;5014235;28;20112;-65
2023/06/05 08:33:36;;;;;;;1.35;0.88;;;22.10;61.00;;;;;;5005797;28;20030;-64
2023/06/05 08:36:03;;;;;;;1.65;0.95;;;22.10;61.30;;;;;;4994983;28;20035;-64
2023/06/05 08:38:33;;;;;;;2.88;1.08;;;22.20;61.30;;;;;;5000194;28;20030;-64
2023/06/05 08:41:10;;;;;;;2.22;1.10;;;22.30;61.40;;;;;;4984415;23;20105;-69
2023/06/05 08:43:41;;;;;;;1.90;0.88;;;22.40;60.80;;;;;;4966205;28;20470;-69
2023/06/05 08:46:09;;;;;;;3.33;1.02;;;22.40;61.00;;;;;;4979710;28;20034;-69
2023/06/05 08:48:44;;;;;;;2.40;0.90;;;22.50;60.90;;;;;;4990118;28;20169;-68
2023/06/05 08:51:17;;;;;;;2.50;0.80;;;22.50;61.50;;;;;;4965642;28;20031;-68
2023/06/05 08:53:57;;;;;;;2.25;1.02;;;22.60;61.80;;;;;;4971651;28;20038;-68
2023/06/05 08:56:24;;;;;;;1.67;0.80;;;22.70;62.00;;;;;;4945054;29;20035;-68
2023/06/05 08:58:50;;;;;;;3.47;1.23;;;22.80;61.80;;;;;;4955591;28;20052;-68
2023/06/05 09:01:16;;;;;;;1.83;0.90;;;23.00;62.10;;;;;;4945513;29;20468;-68
2023/06/05 09:03:42;;;;;;;4.20;1.38;;;22.90;61.50;;;;;;4956625;28;20042;-68
2023/06/05 09:06:10;;;;;;;2.78;0.90;;;22.90;60.70;;;;;;4962380;28;20035;-66
2023/06/05 09:08:36;;;;;;;3.10;0.85;;;23.10;61.40;;;;;;4970687;28;20073;-69
2023/06/05 09:11:27;;;;;;;3.35;1.40;;;23.20;61.40;;;;;;4967565;28;20031;-69
2023/06/05 09:13:55;;;;;;;3.75;1.10;;;23.40;61.40;;;;;;4972500;28;20082;-69
2023/06/05 09:16:43;;;;;;;2.78;1.13;;;23.50;61.20;;;;;;4965071;28;20043;-69
2023/06/05 09:19:12;;;;;;;3.22;0.80;;;23.40;61.20;;;;;;4936160;29;20036;-69
2023/06/05 09:21:39;;;;;;;2.30;1.30;;;23.50;61.80;;;;;;4961579;28;20049;-69
2023/06/05 09:24:19;;;;;;;2.15;1.10;;;23.70;61.70;;;;;;4973570;28;20030;-68
2023/06/05 09:26:46;;;;;;;1.10;0.70;;;23.80;61.60;;;;;;4943171;28;20031;-68
2023/06/05 09:29:12;;;;;;;3.45;1.15;;;23.90;61.50;;;;;;4974192;28;20065;-68
2023/06/05 09:31:42;;;;;;;2.10;1.02;;;24.00;61.40;;;;;;4942237;29;20040;-68
2023/06/05 09:34:08;;;;;;;3.00;1.27;;;24.00;61.30;;;;;;4945113;29;20039;-68
2023/06/05 09:36:34;;;;;;;1.48;1.00;;;24.10;61.60;;;;;;4960113;28;20041;-68
2023/06/05 09:39:19;;;;;;;6.43;1.20;;;24.10;61.40;;;;;;4955888;28;20050;-68
2023/06/05 09:41:49;;;;;;;2.28;1.08;;;24.30;61.70;;;;;;4962376;28;20027;-67
2023/06/05 09:44:15;;;;;;;2.57;1.20;;;24.20;61.40;;;;;;4973777;28;20058;-67
2023/06/05 09:47:05;;;;;;;4.07;1.42;;;24.40;61.60;;;;;;4941730;29;20027;-68
2023/06/05 09:49:39;;;;;;;1.55;1.00;;;24.70;61.70;;;;;;4935402;29;20027;-68
2023/06/05 09:52:07;;;;;;;2.65;1.13;;;24.90;61.60;;;;;;4965642;28;20731;-69
2023/06/05 09:54:38;;;;;;;1.80;1.10;;;24.90;61.10;;;;;;4970686;28;20053;-68
2023/06/05 09:57:06;;;;;;;3.05;1.65;;;24.90;61.10;;;;;;4944373;28;20035;-68
2023/06/05 09:59:35;;;;;;;2.08;1.23;;;25.10;61.20;;;;;;4936647;29;20027;-68
2023/06/05 10:02:06;;;;;;;2.22;1.23;;;25.20;61.80;;;;;;4964761;28;20034;-68
2023/06/05 10:04:43;;;;;;;2.88;1.25;;;25.20;62.30;;;;;;4936252;29;20502;-68
2023/06/05 10:07:09;;;;;;;3.70;1.65;;;25.20;60.90;;;;;;4954590;28;20034;-69
2023/06/05 10:09:36;;;;;;;6.90;1.48;;;25.30;62.30;;;;;;4920786;29;20502;-68
2023/06/05 10:12:05;;;;;;;4.30;1.67;;;25.30;61.10;;;;;;4963518;28;20502;-68
2023/06/05 10:14:30;;;;;;;6.75;0.95;;;25.40;61.10;;;;;;4970644;28;20106;-68
2023/06/05 10:16:58;;;;;;;1.80;0.93;;;25.40;60.90;;;;;;4960758;28;20639;-68
2023/06/05 10:19:27;;;;;;;1.58;0.90;;;25.60;60.30;;;;;;4971700;28;20077;-68
2023/06/05 10:21:52;;;;;;;2.50;1.27;;;25.70;60.00;;;;;;4960145;28;20074;-68
2023/06/05 10:24:30;;;;;;;1.67;0.95;;;25.90;59.70;;;;;;4972439;28;20034;-68
2023/06/05 10:27:14;;;;;;;1.42;0.90;;;26.10;59.70;;;;;;4957599;28;20046;-69
2023/06/05 10:30:28;;;;;;;2.25;1.30;;;26.30;59.70;;;;;;4969229;28;20032;-68
2023/06/05 10:33:19;;;;;;;1.95;1.25;;;26.10;60.60;;;;;;4945998;29;20031;-68
2023/06/05 10:36:09;;;;;;;2.08;0.88;;;26.20;58.70;;;;;;4961012;28;20046;-68
2023/06/05 10:38:37;;;;;;;2.28;1.17;;;26.30;58.60;;;;;;4953650;28;20030;-68
2023/06/05 10:41:04;;;;;;;2.65;1.10;;;26.20;57.70;;;;;;4948988;28;20035;-68
2023/06/05 10:43:49;;;;;;;6.68;1.13;;;26.60;58.30;;;;;;4967893;28;20026;-67
2023/06/05 10:46:27;;;;;;;3.05;1.52;;;26.90;57.80;;;;;;4943535;29;20090;-68
2023/06/05 10:49:07;;;;;;;2.60;1.23;;;26.70;57.70;;;;;;4968076;28;20026;-68
2023/06/05 10:51:47;;;;;;;5.75;1.40;;;27.30;56.10;;;;;;4961717;28;20058;-68
2023/06/05 10:54:22;;;;;;;2.33;1.02;;;27.00;54.60;;;;;;4935820;29;20050;-68
2023/06/05 10:56:58;;;;;;;11.85;4.00;;;26.90;54.90;;;;;;4962324;28;20138;-68
2023/06/05 10:59:30;;;;;;;6.18;1.88;;;27.40;55.90;;;;;;4971011;28;20671;-68
2023/06/05 11:02:05;;;;;;;3.00;1.00;;;27.50;55.10;;;;;;4963154;28;20034;-68
2023/06/05 11:04:46;;;;;;;2.03;0.98;;;27.90;55.20;;;;;;4936589;29;20122;-68
2023/06/05 11:07:20;;;;;;;3.03;0.88;;;28.20;52.40;;;;;;4953994;28;20027;-68
2023/06/05 11:10:07;;;;;;;3.05;1.02;;;28.20;51.40;;;;;;4952959;28;20034;-68
2023/06/05 11:12:38;;;;;;;1.80;1.00;;;28.50;51.00;;;;;;4964236;28;20026;-68
2023/06/05 11:15:12;;;;;;;1.67;0.73;;;29.00;49.80;;;;;;4964858;28;20050;-69
2023/06/05 11:17:47;;;;;;;8.18;1.77;;;29.50;49.70;;;;;;4959388;28;20098;-68
2023/06/05 11:20:26;;;;;;;9.23;1.33;;;28.90;50.20;;;;;;4939296;28;20085;-68
2023/06/05 11:22:58;;;;;;;1.88;0.88;;;28.80;49.60;;;;;;4963929;28;20031;-67
2023/06/05 11:25:28;;;;;;;5.75;1.02;;;28.40;50.00;;;;;;4967986;28;20042;-68
2023/06/05 11:28:05;;;;;;;1.45;0.60;;;29.00;49.60;;;;;;4964121;28;20070;-68
2023/06/05 11:30:38;;;;;;;1.52;0.73;;;29.20;48.80;;;;;;4967911;28;20046;-68
2023/06/05 11:33:14;;;;;;;2.30;1.02;;;28.70;48.80;;;;;;4957483;28;20043;-68
2023/06/05 11:35:44;;;;;;;1.63;0.75;;;28.70;48.00;;;;;;4958530;28;20031;-68
2023/06/05 11:38:19;;;;;;;2.92;0.95;;;28.30;48.40;;;;;;4957011;28;20034;-68
2023/06/05 11:40:45;;;;;;;5.38;0.98;;;27.80;47.50;;;;;;4967377;28;20034;-67
2023/06/05 11:43:13;;;;;;;2.13;0.95;;;27.50;48.00;;;;;;4964016;28;20117;-67
2023/06/05 11:45:41;;;;;;;1.35;0.70;;;27.50;47.60;;;;;;4968110;28;20035;-67
2023/06/05 11:48:12;;;;;;;2.13;0.88;;;27.80;49.10;;;;;;4955902;28;20113;-68
2023/06/05 11:51:00;;;;;;;7.55;1.25;;;28.10;47.50;;;;;;4950749;28;20038;-67
2023/06/05 11:53:28;;;;;;;4.53;1.08;;;28.60;47.00;;;;;;4935334;28;20391;-68
2023/06/05 11:56:06;;;;;;;5.72;1.42;;;28.70;47.10;;;;;;4964033;28;20050;-68
2023/06/05 11:58:39;;;;;;;1.35;0.80;;;28.50;47.60;;;;;;4963214;28;20023;-68
2023/06/05 12:01:17;;;;;;;1.65;0.95;;;28.50;47.50;;;;;;4971071;28;20039;-68
2023/06/05 12:03:45;;;;;;;5.78;2.03;;;29.00;46.80;;;;;;4963241;28;20515;-67
2023/06/05 12:06:15;;;;;;;3.60;1.00;;;29.40;47.70;;;;;;4964582;28;20073;-67
2023/06/05 12:08:42;;;;;;;;;;;29.80;45.90;;;;;;4975218;28;20027;-67
2023/06/05 12:11:26;;;;;;;1.10;0.93;;;29.70;46.00;;;;;;4953519;28;19937;-68
2023/06/05 12:13:55;;;;;;;1.65;0.90;;;30.10;46.20;;;;;;4958336;28;20027;-68
2023/06/05 12:16:34;;;;;;;1.60;0.90;;;29.70;46.20;;;;;;4948220;29;20050;-68
2023/06/05 12:19:12;;;;;;;1.83;0.85;;;30.00;46.00;;;;;;4960230;28;20031;-68
2023/06/05 12:21:38;;;;;;;2.00;0.90;;;30.10;45.90;;;;;;4965495;28;20023;-68
2023/06/05 12:24:05;;;;;;;2.42;1.30;;;30.10;45.60;;;;;;4954860;29;20031;-68
2023/06/05 12:27:00;;;;;;;1.80;0.90;;;29.90;46.70;;;;;;4965660;28;20027;-67
2023/06/05 12:29:30;;;;;;;2.58;0.98;;;29.80;45.40;;;;;;4939806;29;20050;-68
2023/06/05 12:31:59;;;;;;;3.22;0.98;;;29.30;46.20;;;;;;4967133;28;20031;-68
2023/06/05 12:34:50;;;;;;;2.72;1.38;;;30.20;46.00;;;;;;4927383;29;20035;-68
2023/06/05 12:37:37;;;;;;;3.08;1.15;;;30.80;45.00;;;;;;4942588;29;20031;-68
2023/06/05 12:40:10;;;;;;;1.58;1.00;;;30.00;45.20;;;;;;4944742;28;20386;-68
2023/06/05 12:42:37;;;;;;;4.45;1.15;;;28.70;45.90;;;;;;4953414;28;20118;-67
2023/06/05 12:45:06;;;;;;;8.00;2.95;;;28.40;46.70;;;;;;4953971;28;20862;-67
2023/06/05 12:47:33;;;;;;;2.13;0.93;;;28.80;46.80;;;;;;4969672;28;20026;-68
2023/06/05 12:49:59;;;;;;;2.20;0.90;;;29.10;47.10;;;;;;4956327;28;20051;-68
2023/06/05 12:52:25;;;;;;;2.97;1.02;;;28.80;45.50;;;;;;4969622;28;20121;-68
2023/06/05 12:54:56;;;;;;;2.80;0.80;;;29.70;47.40;;;;;;4973308;28;20443;-69
2023/06/05 12:57:25;;;;;;;3.33;1.70;;;30.50;46.20;;;;;;4969810;28;20026;-68
2023/06/05 12:59:54;;;;;;;4.68;1.00;;;30.90;45.50;;;;;;4957078;28;20023;-68